Time;durP1;ratioP1;P1;durP2;ratioP2;P2;SDS_P1;SDS_P2;PMS_P1;PMS_P2;Temp;Humidity;BMP_temperature;BMP_pressure;BME280_temperature;BME280_humidity;BME280_pressure;Samples;Min_cycle;Max_cycle;Signal;HPM_P1;HPM_P2
2023/03/10 00:01:52;;;;;;;1.23;0.40;;;;;;;3.79;67.49;96367.31;6291180;28;20235;-35
2023/03/10 00:04:54;;;;;;;1.43;0.50;;;;;;;3.58;67.37;96337.06;6292038;28;20757;-36
2023/03/10 00:07:56;;;;;;;1.10;0.57;;;;;;;3.71;67.52;96361.56;6294174;28;20222;-35
2023/03/10 00:10:59;;;;;;;0.60;0.30;;;;;;;3.71;67.71;96356.31;6282025;28;20767;-36
2023/03/10 00:14:01;;;;;;;0.40;0.37;;;;;;;3.29;67.91;96301.94;6290379;28;20225;-36
2023/03/10 00:17:03;;;;;;;0.77;0.37;;;;;;;3.25;67.87;96295.56;6290138;28;20237;-35
2023/03/10 00:20:10;;;;;;;3.03;0.80;;;;;;;3.52;68.28;96339.84;6272949;28;20237;-35
2023/03/10 00:23:12;;;;;;;3.17;0.83;;;;;;;3.55;68.30;96340.19;6290330;28;20233;-35
2023/03/10 00:26:16;;;;;;;0.30;0.30;;;;;;;3.54;67.94;96335.13;6291442;28;20602;-36
2023/03/10 00:29:18;;;;;;;1.27;0.40;;;;;;;3.53;68.02;96333.53;6308972;28;20226;-36
2023/03/10 00:32:20;;;;;;;0.93;0.50;;;;;;;3.34;68.03;96304.69;6293886;28;20754;-36
2023/03/10 00:35:22;;;;;;;1.57;0.67;;;;;;;3.44;68.17;96325.16;6289675;28;20606;-36
2023/03/10 00:38:24;;;;;;;2.57;0.80;;;;;;;3.44;68.21;96317.28;6291650;28;20232;-35
2023/03/10 00:41:35;;;;;;;1.40;0.60;;;;;;;3.45;68.05;96305.75;6289075;28;20712;-36
2023/03/10 00:44:37;;;;;;;1.83;0.83;;;;;;;3.42;68.23;96300.13;6296739;28;20224;-35
2023/03/10 00:47:39;;;;;;;1.20;0.70;;;;;;;3.05;68.09;96243.28;6291196;28;20233;-35
2023/03/10 00:50:41;;;;;;;1.03;0.50;;;;;;;3.40;68.30;96287.19;6286825;28;20613;-35
2023/03/10 00:53:43;;;;;;;0.43;0.30;;;;;;;3.41;67.92;96282.72;6290121;28;20298;-36
2023/03/10 00:56:45;;;;;;;1.07;0.40;;;;;;;3.33;68.01;96276.78;6273385;28;20233;-35
2023/03/10 00:59:50;;;;;;;0.80;0.43;;;;;;;3.32;68.20;96267.28;6289712;28;20252;-36
2023/03/10 01:02:52;;;;;;;2.80;0.40;;;;;;;3.34;68.12;96267.03;6267346;28;20226;-35
2023/03/10 01:05:55;;;;;;;0.80;0.30;;;;;;;3.33;68.18;96254.91;6290896;28;20235;-36
2023/03/10 01:08:57;;;;;;;1.23;0.47;;;;;;;3.27;68.20;96250.59;6288251;28;20270;-36
2023/03/10 01:11:59;;;;;;;0.50;0.40;;;;;;;3.23;68.04;96236.28;6279011;28;20709;-36
2023/03/10 01:15:02;;;;;;;1.03;0.40;;;;;;;2.92;68.36;96203.25;6275487;28;20225;-35
2023/03/10 01:18:05;;;;;;;1.10;0.40;;;;;;;3.18;68.11;96236.97;6290057;28;20338;-35
2023/03/10 01:21:15;;;;;;;0.90;0.50;;;;;;;2.78;68.24;96169.28;6294833;28;20213;-36
2023/03/10 01:24:17;;;;;;;0.93;0.60;;;;;;;3.15;68.41;96229.53;6293833;28;20219;-36
2023/03/10 01:27:19;;;;;;;2.10;0.40;;;;;;;3.14;68.11;96221.88;6296610;28;20232;-35
2023/03/10 01:30:21;;;;;;;2.20;0.40;;;;;;;3.11;68.16;96215.25;6293369;28;20243;-35
2023/03/10 01:33:24;;;;;;;0.93;0.60;;;;;;;3.08;68.16;96216.50;6274537;28;20237;-36
2023/03/10 01:36:26;;;;;;;0.63;0.43;;;;;;;3.05;68.46;96206.47;6276166;28;20237;-35
2023/03/10 01:39:28;;;;;;;0.77;0.70;;;;;;;3.08;68.37;96211.25;6297120;28;20234;-36
2023/03/10 01:42:31;;;;;;;0.50;0.40;;;;;;;2.81;68.08;96160.16;6293868;28;20228;-36
2023/03/10 01:45:33;;;;;;;2.70;0.40;;;;;;;3.01;68.49;96188.72;6296035;28;20237;-36
2023/03/10 01:48:35;;;;;;;0.50;0.30;;;;;;;3.03;68.04;96176.13;6293110;28;20328;-36
2023/03/10 01:51:41;;;;;;;0.57;0.40;;;;;;;2.98;68.05;96174.19;6279146;28;20221;-35
2023/03/10 01:54:48;;;;;;;1.93;0.60;;;;;;;2.97;68.23;96167.34;6275273;28;20237;-35
2023/03/10 01:57:53;;;;;;;1.20;0.47;;;;;;;2.74;68.34;96133.16;6281763;28;20247;-35
2023/03/10 02:00:55;;;;;;;0.30;0.30;;;;;;;2.73;68.33;96119.22;6305039;28;20323;-36
2023/03/10 02:04:05;;;;;;;0.63;0.63;;;;;;;2.92;68.36;96154.09;6275425;28;20242;-36
2023/03/10 02:07:08;;;;;;;0.83;0.60;;;;;;;2.26;68.23;96045.66;6296513;28;20241;-35
2023/03/10 02:10:14;;;;;;;1.20;1.00;;;;;;;2.84;67.97;96126.28;6298038;28;20328;-35
2023/03/10 02:13:16;;;;;;;0.80;0.50;;;;;;;2.93;68.15;96131.22;6297747;28;20239;-36
2023/03/10 02:16:19;;;;;;;1.50;0.60;;;;;;;2.94;68.39;96122.28;6282503;28;20313;-36
2023/03/10 02:19:30;;;;;;;3.00;0.70;;;;;;;2.59;68.17;96067.91;6292579;28;20553;-35
2023/03/10 02:22:32;;;;;;;0.40;0.40;;;;;;;2.93;68.06;96115.44;6293371;28;20623;-36
2023/03/10 02:25:49;;;;;;;1.30;1.07;;;;;;;2.52;68.20;96048.84;6291058;28;20231;-36
2023/03/10 02:28:53;;;;;;;0.90;0.47;;;;;;;2.83;68.43;96103.66;6292240;28;20324;-36
2023/03/10 02:31:57;;;;;;;0.30;0.30;;;;;;;2.81;68.25;96092.59;6275210;28;20826;-36
2023/03/10 02:34:59;;;;;;;2.73;0.60;;;;;;;2.80;68.50;96095.44;6292219;28;20272;-35
2023/03/10 02:38:01;;;;;;;1.50;0.40;;;;;;;2.81;68.41;96094.41;6272142;28;20703;-36
2023/03/10 02:41:19;;;;;;;2.00;0.57;;;;;;;2.79;68.48;96078.84;6291595;28;20233;-35
2023/03/10 02:44:24;;;;;;;0.37;0.30;;;;;;;2.66;68.36;96062.53;6275344;28;20227;-35
2023/03/10 02:47:26;;;;;;;0.80;0.37;;;;;;;2.67;68.95;96077.28;6293001;28;20244;-35
2023/03/10 02:50:35;;;;;;;0.60;0.50;;;;;;;2.69;69.10;96068.13;6273193;28;20226;-36
2023/03/10 02:53:37;;;;;;;0.47;0.40;;;;;;;2.49;68.91;96023.81;6277448;28;20272;-35
2023/03/10 02:56:41;;;;;;;1.27;0.50;;;;;;;2.70;68.70;96047.88;6294477;28;20436;-35
2023/03/10 02:59:45;;;;;;;0.30;0.30;;;;;;;2.72;68.43;96043.22;6292905;28;20326;-35
2023/03/10 03:02:47;;;;;;;1.27;0.50;;;;;;;2.69;68.55;96038.41;6293560;28;20242;-35
2023/03/10 03:05:49;;;;;;;0.63;0.37;;;;;;;2.65;69.06;96043.31;6289199;28;20253;-36
2023/03/10 03:08:51;;;;;;;1.77;0.40;;;;;;;2.68;69.05;96037.63;6276870;28;20323;-36
2023/03/10 03:11:56;;;;;;;1.20;0.53;;;;;;;2.59;68.83;96013.50;6271556;28;20248;-36
2023/03/10 03:14:58;;;;;;;2.03;0.50;;;;;;;2.64;69.39;96019.91;6290975;28;20237;-35
2023/03/10 03:18:03;;;;;;;1.50;0.50;;;;;;;2.43;69.19;95987.97;6278375;28;20223;-36
2023/03/10 03:21:10;;;;;;;0.80;0.57;;;;;;;2.65;69.23;96010.97;6278175;28;20561;-35
2023/03/10 03:24:13;;;;;;;0.40;0.40;;;;;;;2.60;69.19;96006.41;6274944;28;20300;-35
2023/03/10 03:27:15;;;;;;;3.00;0.60;;;;;;;2.53;69.21;95993.41;6273149;28;20324;-36
2023/03/10 03:30:24;;;;;;;1.00;0.57;;;;;;;2.59;69.49;95992.47;6276107;28;20221;-35
2023/03/10 03:33:27;;;;;;;0.37;0.37;;;;;;;2.59;69.38;95999.56;6293415;28;20241;-36
2023/03/10 03:36:29;;;;;;;1.60;0.60;;;;;;;2.60;69.33;95990.66;6295936;28;20726;-35
2023/03/10 03:39:32;;;;;;;0.97;0.40;;;;;;;2.63;69.42;95979.69;6274598;28;20320;-35
2023/03/10 03:42:43;;;;;;;0.40;0.40;;;;;;;2.73;69.44;95973.81;6306321;28;20244;-35
2023/03/10 03:45:45;;;;;;;0.70;0.50;;;;;;;2.75;68.84;95966.47;6293833;28;20656;-35
2023/03/10 03:48:48;;;;;;;0.50;0.50;;;;;;;2.72;68.78;95966.97;6270837;28;20237;-35
2023/03/10 03:51:51;;;;;;;0.70;0.40;;;;;;;2.68;68.99;95966.63;6280172;28;20705;-35
2023/03/10 03:54:56;;;;;;;0.40;0.33;;;;;;;2.61;68.63;95957.28;6280351;28;20248;-35
2023/03/10 03:57:58;;;;;;;0.77;0.70;;;;;;;2.52;68.85;95947.16;6292009;28;20275;-35
2023/03/10 04:01:01;;;;;;;0.40;0.40;;;;;;;2.45;68.92;95941.22;6271914;28;20608;-36
2023/03/10 04:04:07;;;;;;;0.23;0.23;;;;;;;2.43;69.28;95934.59;6273327;28;20345;-35
2023/03/10 04:07:10;;;;;;;1.40;0.60;;;;;;;2.41;69.26;95934.03;6305091;28;20311;-35
2023/03/10 04:10:14;;;;;;;0.43;0.33;;;;;;;2.43;69.11;95931.97;6290977;28;20316;-37
2023/03/10 04:13:16;;;;;;;1.83;0.60;;;;;;;2.45;69.30;95922.81;6289764;28;20578;-38
2023/03/10 04:16:19;;;;;;;1.87;0.40;;;;;;;2.44;68.89;95912.53;6274260;28;20225;-35
2023/03/10 04:19:21;;;;;;;1.10;0.50;;;;;;;2.41;69.27;95897.22;6276882;28;20696;-36
2023/03/10 04:22:27;;;;;;;2.53;0.40;;;;;;;2.39;69.22;95901.94;6291348;28;20244;-36
2023/03/10 04:25:30;;;;;;;0.33;0.30;;;;;;;2.29;69.53;95879.69;6292460;28;20595;-36
2023/03/10 04:28:32;;;;;;;0.83;0.30;;;;;;;2.26;70.28;95885.41;6290975;28;20608;-35
2023/03/10 04:31:34;;;;;;;0.33;0.33;;;;;;;2.26;70.60;95877.50;6291580;28;20734;-36
2023/03/10 04:34:37;;;;;;;0.80;0.67;;;;;;;2.26;70.10;95863.59;6272742;28;20286;-35
2023/03/10 04:37:40;;;;;;;0.57;0.50;;;;;;;2.14;69.82;95842.63;6294968;28;20234;-35
2023/03/10 04:40:42;;;;;;;1.07;0.70;;;;;;;2.27;69.96;95857.31;6290114;28;20707;-35
2023/03/10 04:43:45;;;;;;;1.67;0.63;;;;;;;2.24;69.79;95845.44;6276846;28;20298;-35
2023/03/10 04:46:50;;;;;;;1.73;0.50;;;;;;;2.22;69.83;95847.50;6281361;28;20226;-36
2023/03/10 04:49:54;;;;;;;1.27;0.50;;;;;;;2.19;69.70;95839.28;6267363;28;20243;-35
2023/03/10 04:52:56;;;;;;;2.03;0.60;;;;;;;2.24;69.65;95832.31;6290626;28;20233;-35
2023/03/10 04:56:05;;;;;;;0.43;0.40;;;;;;;2.23;69.49;95822.03;6257456;28;20248;-35
2023/03/10 04:59:09;;;;;;;3.37;0.77;;;;;;;2.26;69.69;95813.66;6272581;28;20233;-35
2023/03/10 05:02:11;;;;;;;3.87;0.90;;;;;;;1.95;69.85;95765.03;6272992;28;20231;-35
2023/03/10 05:05:14;;;;;;;2.50;0.70;;;;;;;1.99;70.04;95769.59;6271318;28;20233;-35
2023/03/10 05:08:19;;;;;;;1.23;0.67;;;;;;;2.23;69.93;95806.28;6271850;28;20239;-35
2023/03/10 05:11:22;;;;;;;1.90;0.97;;;;;;;2.28;69.73;95796.66;6289868;28;20316;-35
2023/03/10 05:14:24;;;;;;;0.97;0.50;;;;;;;2.30;69.33;95789.31;6286635;28;20236;-35
2023/03/10 05:17:28;;;;;;;0.70;0.60;;;;;;;1.92;69.60;95734.00;6290778;28;20239;-35
2023/03/10 05:20:30;;;;;;;1.27;0.63;;;;;;;1.49;69.58;95654.75;6293170;28;20230;-35
2023/03/10 05:23:33;;;;;;;2.10;0.77;;;;;;;2.37;69.41;95785.78;6272657;28;20241;-36
2023/03/10 05:26:35;;;;;;;2.67;1.10;;;;;;;2.39;69.26;95787.13;6271912;28;20613;-35
2023/03/10 05:29:38;;;;;;;2.67;1.40;;;;;;;2.37;69.18;95772.63;6289832;28;20315;-35
2023/03/10 05:32:47;;;;;;;2.50;1.53;;;;;;;2.31;69.00;95759.38;6276267;28;20277;-35
2023/03/10 05:35:50;;;;;;;1.33;0.90;;;;;;;2.52;68.92;95786.03;6290182;28;20222;-35
2023/03/10 05:38:52;;;;;;;0.70;0.60;;;;;;;2.35;68.89;95743.16;6268052;28;20233;-35
2023/03/10 05:41:55;;;;;;;2.33;0.90;;;;;;;2.55;69.10;95780.28;6273721;28;20230;-36
2023/03/10 05:45:01;;;;;;;1.57;0.90;;;;;;;2.26;69.46;95713.84;6267548;28;20241;-35
2023/03/10 05:48:03;;;;;;;0.87;0.60;;;;;;;2.56;69.39;95742.44;6269793;28;20613;-35
2023/03/10 05:51:10;;;;;;;1.50;0.60;;;;;;;2.80;69.51;95757.03;6293606;28;20703;-36
2023/03/10 05:54:13;;;;;;;0.60;0.40;;;;;;;2.84;69.62;95760.78;6306471;28;20214;-35
2023/03/10 05:57:15;;;;;;;1.07;0.50;;;;;;;2.90;69.54;95748.50;6281506;28;20670;-35
2023/03/10 06:00:18;;;;;;;0.60;0.50;;;;;;;2.67;69.37;95701.38;6312640;28;20239;-35
2023/03/10 06:03:30;;;;;;;1.03;0.60;;;;;;;2.77;68.94;95704.94;6274219;28;20297;-35
2023/03/10 06:06:33;;;;;;;0.70;0.60;;;;;;;3.05;69.01;95734.75;6293103;28;20573;-35
2023/03/10 06:09:35;;;;;;;0.93;0.53;;;;;;;2.88;69.18;95703.25;6294192;28;20232;-36
2023/03/10 06:12:37;;;;;;;2.63;0.57;;;;;;;2.94;69.11;95704.09;6293716;28;20238;-36
2023/03/10 06:15:39;;;;;;;1.37;0.50;;;;;;;2.89;69.18;95681.16;6294116;28;20790;-35
2023/03/10 06:18:42;;;;;;;0.43;0.40;;;;;;;3.29;69.10;95725.63;6294559;28;20581;-35
2023/03/10 06:21:44;;;;;;;1.43;0.67;;;;;;;3.40;68.83;95723.94;6292256;28;20291;-36
2023/03/10 06:24:46;;;;;;;2.53;0.60;;;;;;;3.47;68.52;95723.75;6294802;28;20735;-36
2023/03/10 06:27:48;;;;;;;0.50;0.40;;;;;;;3.34;68.93;95696.72;6295598;28;20633;-36
2023/03/10 06:30:56;;;;;;;0.87;0.50;;;;;;;3.63;68.92;95722.88;6293152;28;20230;-36
2023/03/10 06:33:59;;;;;;;0.70;0.53;;;;;;;3.40;69.18;95668.66;6293233;28;20256;-35
2023/03/10 06:37:04;;;;;;;1.23;0.63;;;;;;;3.53;69.52;95699.88;6294483;28;20241;-36
2023/03/10 06:40:11;;;;;;;0.60;0.40;;;;;;;3.88;69.48;95732.91;6268461;28;20245;-36
2023/03/10 06:43:14;;;;;;;1.57;0.60;;;;;;;3.09;69.09;95591.19;6289092;28;20272;-36
2023/03/10 06:46:16;;;;;;;2.37;0.77;;;;;;;4.06;68.58;95723.88;6297587;28;20272;-36
2023/03/10 06:49:18;;;;;;;0.70;0.40;;;;;;;4.04;68.71;95726.78;6273345;28;20237;-36
2023/03/10 06:52:21;;;;;;;2.00;0.50;;;;;;;4.07;68.63;95723.63;6289608;28;20249;-36
2023/03/10 06:55:23;;;;;;;1.20;0.47;;;;;;;4.12;68.43;95726.31;6289860;28;20244;-36
2023/03/10 06:58:25;;;;;;;0.77;0.60;;;;;;;4.06;68.98;95713.34;6291364;28;20242;-36
2023/03/10 07:01:30;;;;;;;1.67;0.43;;;;;;;4.04;69.51;95703.06;6290588;28;20232;-35
2023/03/10 07:04:32;;;;;;;1.33;0.50;;;;;;;4.14;69.74;95699.72;6292591;28;20261;-36
2023/03/10 07:07:35;;;;;;;1.00;0.60;;;;;;;4.24;69.77;95693.75;6290594;28;20446;-36
2023/03/10 07:10:37;;;;;;;1.10;0.50;;;;;;;4.40;69.41;95696.25;6293825;28;20337;-36
2023/03/10 07:13:39;;;;;;;0.67;0.50;;;;;;;4.59;69.25;95696.66;6292911;28;20285;-36
2023/03/10 07:16:41;;;;;;;0.97;0.70;;;;;;;4.74;68.80;95696.00;6292282;28;20654;-36
2023/03/10 07:19:43;;;;;;;0.40;0.40;;;;;;;4.77;68.75;95660.38;6293584;28;20262;-36
2023/03/10 07:22:45;;;;;;;0.70;0.47;;;;;;;5.01;68.54;95677.41;6291767;28;20234;-36
2023/03/10 07:25:55;;;;;;;0.83;0.63;;;;;;;5.13;68.16;95674.59;6291725;28;20376;-36
2023/03/10 07:28:57;;;;;;;0.67;0.50;;;;;;;5.31;67.79;95673.34;6295970;28;20230;-36
2023/03/10 07:31:59;;;;;;;0.60;0.53;;;;;;;5.45;67.48;95669.19;6292857;28;20241;-36
2023/03/10 07:35:01;;;;;;;1.47;0.70;;;;;;;5.66;67.60;95667.38;6290904;28;20226;-35
2023/03/10 07:38:03;;;;;;;1.13;0.63;;;;;;;5.86;67.13;95667.47;6293153;28;20350;-35
2023/03/10 07:41:12;;;;;;;0.67;0.63;;;;;;;6.12;66.43;95667.53;6291152;28;20226;-36
2023/03/10 07:44:14;;;;;;;1.63;0.87;;;;;;;6.33;65.64;95655.91;6290386;28;20259;-35
2023/03/10 07:47:16;;;;;;;0.67;0.60;;;;;;;6.65;64.58;95665.41;6272066;28;20335;-36
2023/03/10 07:50:19;;;;;;;1.07;0.70;;;;;;;6.84;64.09;95655.84;6286786;28;20307;-36
2023/03/10 07:53:21;;;;;;;1.30;0.70;;;;;;;6.90;63.33;95627.56;6292709;28;20220;-36
2023/03/10 07:56:23;;;;;;;0.73;0.57;;;;;;;7.42;62.15;95650.94;6278328;28;20233;-35
2023/03/10 07:59:25;;;;;;;1.03;0.63;;;;;;;8.06;61.11;95643.19;6291332;28;20235;-36
2023/03/10 08:02:27;;;;;;;1.10;0.80;;;;;;;8.48;58.83;95589.56;6288481;28;20641;-35
2023/03/10 08:05:30;;;;;;;1.23;1.13;;;;;;;9.54;56.96;95638.06;6272695;28;20240;-35
2023/03/10 08:08:33;;;;;;;2.50;1.47;;;;;;;11.81;51.57;95648.94;6288960;28;20572;-36
2023/03/10 08:11:35;;;;;;;2.10;1.50;;;;;;;16.16;42.38;95643.97;6295759;28;20231;-36
2023/03/10 08:14:37;;;;;;;2.20;1.30;;;;;;;20.20;34.64;95654.06;6290507;28;20234;-36
2023/03/10 08:17:39;;;;;;;2.37;1.47;;;;;;;23.64;27.17;95655.47;6289891;28;20226;-36
2023/03/10 08:20:41;;;;;;;2.93;1.50;;;;;;;25.15;25.40;95652.47;6290807;28;20270;-36
2023/03/10 08:23:44;;;;;;;3.20;1.40;;;;;;;27.52;21.85;95663.31;6279634;28;20233;-34
2023/03/10 08:26:46;;;;;;;2.63;1.53;;;;;;;28.66;20.92;95666.25;6283819;28;20839;-36
2023/03/10 08:29:48;;;;;;;3.87;1.30;;;;;;;30.12;18.64;95658.75;6290877;28;20229;-36
2023/03/10 08:32:50;;;;;;;3.67;1.40;;;;;;;31.44;17.70;95655.41;6289477;28;20277;-34
2023/03/10 08:36:05;;;;;;;1.95;1.40;;;;;;;32.61;16.38;95654.50;6286830;28;20245;-37
2023/03/10 08:39:07;;;;;;;2.70;1.60;;;;;;;29.92;18.24;95633.97;6291087;28;20721;-34
2023/03/10 08:42:11;;;;;;;3.55;1.30;;;;;;;27.89;20.46;95653.69;6290354;28;20282;-35
2023/03/10 08:45:13;;;;;;;1.70;1.50;;;;;;;27.74;19.46;95655.00;6295430;28;20225;-37
2023/03/10 08:48:15;;;;;;;2.65;1.40;;;;;;;28.32;19.49;95653.28;6288109;28;20455;-36
2023/03/10 08:51:17;;;;;;;3.88;1.45;;;;;;;27.27;19.91;95630.66;6289574;28;20275;-37
2023/03/10 08:54:21;;;;;;;1.50;1.10;;;;;;;25.04;23.21;95652.41;6289861;28;20218;-37
2023/03/10 08:57:23;;;;;;;2.35;1.40;;;;;;;22.77;25.51;95655.72;6292700;28;20305;-36
2023/03/10 09:00:26;;;;;;;3.10;1.07;;;;;;;21.27;27.46;95633.72;6289235;28;20312;-37
2023/03/10 09:03:28;;;;;;;1.47;1.17;;;;;;;19.91;29.40;95657.25;6291495;28;20230;-35
2023/03/10 09:06:33;;;;;;;1.67;1.17;;;;;;;18.97;30.52;95642.56;6289837;28;20458;-35
2023/03/10 09:09:36;;;;;;;2.20;1.07;;;;;;;18.37;31.33;95641.63;6288342;28;20225;-37
2023/03/10 09:12:38;;;;;;;2.80;1.20;;;;;;;17.83;31.37;95628.50;6289626;28;20308;-35
2023/03/10 09:15:41;;;;;;;1.73;1.17;;;;;;;17.24;31.87;95635.88;6289881;28;20693;-37
2023/03/10 09:18:44;;;;;;;2.50;1.10;;;;;;;16.90;32.71;95645.13;6289582;28;20316;-38
2023/03/10 09:21:46;;;;;;;1.70;1.10;;;;;;;16.77;32.67;95636.22;6295728;28;20630;-37
2023/03/10 09:24:48;;;;;;;1.33;1.13;;;;;;;16.58;31.70;95649.31;6290219;28;20330;-40
2023/03/10 09:27:50;;;;;;;1.40;1.00;;;;;;;16.32;32.43;95619.22;6286997;28;20588;-44
2023/03/10 09:30:53;;;;;;;1.60;1.00;;;;;;;16.58;31.92;95641.25;6288317;28;20233;-38
2023/03/10 09:33:55;;;;;;;1.00;0.73;;;;;;;16.65;32.57;95638.84;6293064;28;20233;-35
2023/03/10 09:36:57;;;;;;;3.03;0.90;;;;;;;16.72;31.59;95636.41;6297371;28;20213;-35
2023/03/10 09:39:59;;;;;;;0.73;0.73;;;;;;;16.92;31.53;95639.38;6293543;28;20241;-36
2023/03/10 09:43:16;;;;;;;1.60;0.87;;;;;;;17.01;30.65;95637.41;6294660;28;20225;-37
2023/03/10 09:46:36;;;;;;;0.90;0.70;;;;;;;17.33;30.79;95633.06;6293757;28;20668;-39
2023/03/10 09:49:50;;;;;;;1.27;0.60;;;;;;;17.56;30.04;95630.75;6291733;28;20785;-36
2023/03/10 09:53:06;;;;;;;2.20;0.80;;;;;;;17.54;30.72;95636.47;6294250;28;20728;-37
2023/03/10 09:56:15;;;;;;;1.33;0.70;;;;;;;17.54;29.84;95624.91;6296276;28;20248;-39
2023/03/10 09:59:27;;;;;;;0.80;0.70;;;;;;;17.49;29.47;95630.53;6298239;28;20589;-36
2023/03/10 10:02:38;;;;;;;1.33;0.70;;;;;;;17.57;29.79;95628.81;6293822;28;20714;-41
2023/03/10 10:05:41;;;;;;;1.97;0.70;;;;;;;17.84;29.25;95644.34;6293640;28;20227;-40
2023/03/10 10:08:59;;;;;;;0.80;0.60;;;;;;;18.00;28.71;95631.75;6278336;28;20859;-39
2023/03/10 10:12:16;;;;;;;0.90;0.60;;;;;;;18.47;28.36;95641.16;6293769;28;20239;-36
2023/03/10 10:15:22;;;;;;;1.57;0.80;;;;;;;18.24;28.01;95600.47;6294566;28;20210;-39
2023/03/10 10:19:11;;;;;;;0.60;0.60;;;;;;;18.60;27.29;95631.91;6291569;28;20218;-35
2023/03/10 10:22:26;;;;;;;0.80;0.80;;;;;;;19.11;27.65;95632.13;6195149;28;20236;-40
2023/03/10 10:25:31;;;;;;;0.97;0.63;;;;;;;19.01;27.24;95622.66;6194707;28;20336;-38
2023/03/10 10:28:42;;;;;;;0.70;0.60;;;;;;;18.98;27.42;95626.03;6198373;28;20634;-38
2023/03/10 10:32:08;;;;;;;1.23;0.87;;;;;;;18.94;27.00;95632.47;6195582;28;20597;-35
2023/03/10 10:35:14;;;;;;;1.47;0.70;;;;;;;18.31;27.66;95603.38;6194919;28;20223;-36
2023/03/10 10:38:23;;;;;;;1.17;0.97;;;;;;;18.65;27.69;95609.31;6188403;28;20806;-36
2023/03/10 10:41:31;;;;;;;2.00;0.90;;;;;;;19.04;28.06;95624.63;6192439;28;20740;-39
2023/03/10 10:44:40;;;;;;;1.63;1.10;;;;;;;19.34;27.57;95629.63;6193065;28;20234;-35
2023/03/10 10:47:50;;;;;;;0.80;0.80;;;;;;;19.62;26.96;95626.09;6195658;28;20642;-35
2023/03/10 10:50:53;;;;;;;1.53;1.10;;;;;;;19.65;26.69;95611.88;6188660;28;20241;-35
2023/03/10 10:53:56;;;;;;;1.80;1.20;;;;;;;20.08;26.75;95637.94;6194423;28;20663;-35
2023/03/10 10:57:00;;;;;;;1.27;1.10;;;;;;;20.05;26.64;95660.28;6196139;28;20601;-35
2023/03/10 11:00:27;;;;;;;1.57;1.13;;;;;;;20.03;26.83;95640.91;6268327;28;20257;-35
2023/03/10 11:03:32;;;;;;;1.57;1.20;;;;;;;20.25;26.74;95644.88;6272220;28;20219;-35
2023/03/10 11:06:36;;;;;;;2.27;1.03;;;;;;;19.51;26.81;95590.69;6267663;28;20889;-35
2023/03/10 11:09:39;;;;;;;3.13;1.10;;;;;;;19.74;27.17;95634.06;6269629;28;20229;-35
2023/03/10 11:13:11;;;;;;;0.87;0.80;;;;;;;19.52;26.83;95632.78;6268830;28;20233;-35
2023/03/10 11:16:27;;;;;;;2.80;1.10;;;;;;;18.60;28.16;95571.78;6268433;28;20233;-35
2023/03/10 11:19:56;;;;;;;1.13;0.70;;;;;;;18.90;28.22;95610.78;6283354;28;20318;-35
2023/03/10 11:22:58;;;;;;;2.67;0.90;;;;;;;19.02;27.95;95608.03;6269619;28;20721;-35
2023/03/10 11:26:09;;;;;;;1.13;0.73;;;;;;;19.30;28.18;95601.75;6255160;28;20699;-35
2023/03/10 11:29:35;;;;;;;1.60;1.00;;;;;;;19.44;28.03;95609.41;6266446;28;20239;-35
2023/03/10 11:32:43;;;;;;;2.43;0.90;;;;;;;19.27;29.39;95607.88;6269380;28;20238;-35
2023/03/10 11:35:50;;;;;;;2.50;1.10;;;;;;;18.75;29.52;95603.44;6266610;28;20703;-35
2023/03/10 11:39:04;;;;;;;2.03;1.10;;;;;;;17.74;30.45;95585.56;6269955;28;20230;-35
2023/03/10 11:42:12;;;;;;;1.20;0.90;;;;;;;17.70;31.27;95598.09;6267668;28;20231;-35
2023/03/10 11:45:36;;;;;;;1.37;0.97;;;;;;;17.77;31.31;95584.84;6266148;28;20755;-35
2023/03/10 11:49:26;;;;;;;1.50;0.80;;;;;;;17.34;32.28;95590.78;6263442;28;20762;-35
2023/03/10 11:52:31;;;;;;;4.17;1.30;;;;;;;16.65;33.52;95554.69;6247396;28;20694;-35
2023/03/10 11:55:36;;;;;;;4.20;1.20;;;;;;;16.82;33.19;95581.44;6247902;28;20227;-35
2023/03/10 11:58:40;;;;;;;4.83;1.10;;;;;;;17.05;34.02;95610.63;6245423;28;20690;-35
2023/03/10 12:02:02;;;;;;;2.30;1.17;;;;;;;16.93;34.35;95617.53;6246186;28;20301;-35
2023/03/10 12:05:16;;;;;;;2.80;1.30;;;;;;;16.60;33.63;95569.16;6246326;28;20608;-35
2023/03/10 12:08:22;;;;;;;1.37;0.90;;;;;;;17.17;33.30;95606.03;6245858;28;20224;-35
2023/03/10 12:11:27;;;;;;;4.17;1.33;;;;;;;17.16;34.05;95599.09;6248167;28;20262;-35
2023/03/10 12:14:31;;;;;;;1.63;0.93;;;;;;;17.54;33.09;95566.47;6248891;28;20235;-35
2023/03/10 12:17:40;;;;;;;2.10;1.40;;;;;;;17.96;32.71;95584.25;6249264;28;20664;-35
2023/03/10 12:20:42;;;;;;;1.93;1.10;;;;;;;17.54;33.02;95584.53;6251037;28;20254;-34
2023/03/10 12:23:47;;;;;;;2.33;1.23;;;;;;;17.31;33.76;95588.78;6263765;28;20372;-34
2023/03/10 12:27:00;;;;;;;1.80;1.47;;;;;;;17.34;34.02;95591.59;6271774;28;20794;-35
2023/03/10 12:30:41;;;;;;;3.53;1.20;;;;;;;17.58;33.07;95593.47;6290094;28;20241;-35
2023/03/10 12:33:44;;;;;;;1.63;1.00;;;;;;;17.59;33.11;95591.59;6294296;28;20242;-35
2023/03/10 12:36:51;;;;;;;2.33;1.20;;;;;;;17.59;32.79;95581.59;6291003;28;20238;-35
2023/03/10 12:39:53;;;;;;;2.03;1.00;;;;;;;17.42;33.29;95582.59;6293700;28;20244;-35
2023/03/10 12:42:55;;;;;;;2.40;1.27;;;;;;;16.94;33.97;95551.06;6287289;28;20705;-35
2023/03/10 12:45:59;;;;;;;4.23;1.50;;;;;;;16.72;34.52;95592.63;6275385;28;20229;-35
2023/03/10 12:49:13;;;;;;;1.87;1.20;;;;;;;16.60;34.59;95589.84;6290763;28;20306;-35
2023/03/10 12:52:25;;;;;;;3.57;1.13;;;;;;;16.37;35.55;95586.75;6289862;28;20234;-35
2023/03/10 12:55:28;;;;;;;2.07;1.10;;;;;;;16.47;35.01;95589.03;6288740;28;20811;-35
2023/03/10 12:58:30;;;;;;;2.80;1.10;;;;;;;16.55;34.60;95526.34;6290864;28;20234;-35
2023/03/10 13:01:40;;;;;;;2.20;1.17;;;;;;;17.30;34.16;95576.47;6291311;28;20325;-34
2023/03/10 13:05:01;;;;;;;2.43;1.30;;;;;;;17.38;33.70;95570.16;6291960;28;20226;-35
2023/03/10 13:08:12;;;;;;;3.07;1.10;;;;;;;17.19;34.16;95566.16;6293904;28;20334;-35
2023/03/10 13:11:36;;;;;;;2.83;1.23;;;;;;;16.92;35.22;95566.78;6295243;28;20232;-35
2023/03/10 13:14:41;;;;;;;1.97;1.00;;;;;;;16.63;35.07;95567.69;6292034;28;20237;-35
2023/03/10 13:17:43;;;;;;;2.90;1.00;;;;;;;16.36;35.36;95569.06;6294812;28;20729;-35
2023/03/10 13:20:47;;;;;;;3.33;1.40;;;;;;;16.33;35.49;95569.72;6310770;28;20719;-35
2023/03/10 13:23:49;;;;;;;2.63;1.30;;;;;;;16.14;35.74;95572.88;6292329;28;20234;-35
2023/03/10 13:27:11;;;;;;;3.37;1.40;;;;;;;15.95;36.03;95562.59;6294471;28;20318;-35
2023/03/10 13:30:14;;;;;;;2.03;1.20;;;;;;;15.87;35.41;95572.31;6279341;28;20341;-34
2023/03/10 13:33:22;;;;;;;2.40;0.70;;;;;;;15.72;35.67;95576.34;6300141;28;20225;-35
2023/03/10 13:36:37;;;;;;;1.50;0.80;;;;;;;15.79;36.22;95578.50;6293732;28;20234;-34
2023/03/10 13:39:40;;;;;;;2.83;0.63;;;;;;;15.96;35.74;95572.25;6295657;28;20381;-34
2023/03/10 13:42:46;;;;;;;2.20;0.83;;;;;;;15.85;35.67;95571.81;6295802;28;20668;-34
2023/03/10 13:45:57;;;;;;;2.90;0.80;;;;;;;15.59;35.74;95585.41;6300518;28;20225;-34
2023/03/10 13:49:05;;;;;;;2.17;0.90;;;;;;;15.57;36.03;95587.63;6292071;28;20681;-35
2023/03/10 13:52:12;;;;;;;0.90;0.70;;;;;;;15.68;35.56;95591.53;6295176;28;20823;-35
2023/03/10 13:55:16;;;;;;;0.83;0.60;;;;;;;15.56;35.39;95577.97;6294386;28;20232;-34
2023/03/10 13:58:18;;;;;;;1.87;0.70;;;;;;;15.68;35.54;95588.06;6294043;28;20233;-34
2023/03/10 14:01:26;;;;;;;1.80;0.60;;;;;;;15.62;35.15;95587.44;6293388;28;20778;-34
2023/03/10 14:04:49;;;;;;;1.67;0.80;;;;;;;15.48;35.51;95579.63;6295892;28;20653;-34
2023/03/10 14:07:59;;;;;;;2.80;0.90;;;;;;;15.29;36.32;95581.16;6293167;28;20638;-34
2023/03/10 14:11:29;;;;;;;0.63;0.50;;;;;;;15.17;35.89;95588.00;6291278;28;20649;-34
2023/03/10 14:14:35;;;;;;;1.40;0.60;;;;;;;14.95;35.80;95556.06;6295527;28;20710;-35
2023/03/10 14:17:38;;;;;;;0.40;0.40;;;;;;;15.30;36.07;95585.41;6290769;28;20323;-34
2023/03/10 14:20:45;;;;;;;1.40;0.77;;;;;;;15.07;36.05;95553.47;6292905;28;20578;-34
2023/03/10 14:23:47;;;;;;;0.57;0.50;;;;;;;15.30;35.42;95563.94;6294399;28;20608;-35
2023/03/10 14:26:49;;;;;;;0.67;0.60;;;;;;;15.27;35.36;95577.97;6295906;28;20260;-34
2023/03/10 14:29:59;;;;;;;1.53;0.70;;;;;;;15.12;35.61;95579.31;6294567;28;20228;-35
2023/03/10 14:33:01;;;;;;;1.17;0.60;;;;;;;15.07;35.72;95571.44;6292580;28;20643;-35
2023/03/10 14:36:09;;;;;;;0.77;0.50;;;;;;;15.09;34.95;95563.88;6291713;28;20322;-35
2023/03/10 14:39:11;;;;;;;1.03;0.83;;;;;;;14.71;35.31;95516.41;6289720;28;20240;-35
2023/03/10 14:42:27;;;;;;;1.00;0.50;;;;;;;15.00;35.32;95558.56;6292777;28;20740;-35